sensor_id;sensor_type;location;lat;lon;timestamp;P1;durP1;ratioP1;P2;durP2;ratioP2
53939;SDS011;39850;43.324;21.916;2023-08-12T00:12:34;9.0;;;7.0;;
53939;SDS011;39850;43.324;21.916;2023-08-12T00:17:12;9.0;;;7.0;;
53939;SDS011;39850;43.324;21.916;2023-08-12T00:21:49;9.0;;;7.0;;
53939;SDS011;39850;43.324;21.916;2023-08-12T00:26:25;9.0;;;7.0;;
53939;SDS011;39850;43.324;21.916;2023-08-12T00:31:02;9.0;;;7.0;;
53939;SDS011;39850;43.324;21.916;2023-08-12T00:35:39;9.0;;;7.0;;
53939;SDS011;39850;43.324;21.916;2023-08-12T00:40:16;8.0;;;7.0;;
53939;SDS011;39850;43.324;21.916;2023-08-12T00:44:53;8.0;;;7.0;;
53939;SDS011;39850;43.324;21.916;2023-08-12T00:49:32;8.0;;;7.0;;
53939;SDS011;39850;43.324;21.916;2023-08-12T00:54:18;8.0;;;7.0;;
53939;SDS011;39850;43.324;21.916;2023-08-12T00:59:05;8.0;;;7.0;;
53939;SDS011;39850;43.324;21.916;2023-08-12T01:32:59;8.0;;;7.0;;
53939;SDS011;39850;43.324;21.916;2023-08-12T01:37:53;8.0;;;7.0;;
53939;SDS011;39850;43.324;21.916;2023-08-12T01:42:39;8.0;;;7.0;;
53939;SDS011;39850;43.324;21.916;2023-08-12T01:47:16;8.0;;;7.0;;
53939;SDS011;39850;43.324;21.916;2023-08-12T01:51:53;8.0;;;7.0;;
53939;SDS011;39850;43.324;21.916;2023-08-12T01:56:29;8.0;;;7.0;;
53939;SDS011;39850;43.324;21.916;2023-08-12T02:01:06;8.0;;;7.0;;
53939;SDS011;39850;43.324;21.916;2023-08-12T02:05:42;8.0;;;7.0;;
53939;SDS011;39850;43.324;21.916;2023-08-12T02:10:18;8.0;;;7.0;;
53939;SDS011;39850;43.324;21.916;2023-08-12T02:14:55;9.0;;;7.0;;
53939;SDS011;39850;43.324;21.916;2023-08-12T02:19:32;9.0;;;7.0;;
53939;SDS011;39850;43.324;21.916;2023-08-12T02:51:49;8.0;;;7.0;;
53939;SDS011;39850;43.324;21.916;2023-08-12T02:56:25;8.0;;;7.0;;
53939;SDS011;39850;43.324;21.916;2023-08-12T03:01:03;8.0;;;7.0;;
53939;SDS011;39850;43.324;21.916;2023-08-12T03:05:39;8.0;;;7.0;;
53939;SDS011;39850;43.324;21.916;2023-08-12T03:10:16;8.0;;;7.0;;
53939;SDS011;39850;43.324;21.916;2023-08-12T03:14:52;8.0;;;7.0;;
53939;SDS011;39850;43.324;21.916;2023-08-12T03:19:29;8.0;;;7.0;;
53939;SDS011;39850;43.324;21.916;2023-08-12T03:24:07;8.0;;;7.0;;
53939;SDS011;39850;43.324;21.916;2023-08-12T03:28:43;8.0;;;7.0;;
53939;SDS011;39850;43.324;21.916;2023-08-12T03:33:20;8.0;;;7.0;;
53939;SDS011;39850;43.324;21.916;2023-08-12T03:37:56;8.0;;;7.0;;
53939;SDS011;39850;43.324;21.916;2023-08-12T04:14:49;8.0;;;7.0;;
53939;SDS011;39850;43.324;21.916;2023-08-12T04:19:26;8.0;;;7.0;;
53939;SDS011;39850;43.324;21.916;2023-08-12T04:24:04;8.0;;;7.0;;
53939;SDS011;39850;43.324;21.916;2023-08-12T04:28:42;8.0;;;7.0;;
53939;SDS011;39850;43.324;21.916;2023-08-12T04:33:19;8.0;;;7.0;;
53939;SDS011;39850;43.324;21.916;2023-08-12T04:37:56;8.0;;;7.0;;
53939;SDS011;39850;43.324;21.916;2023-08-12T04:42:32;8.0;;;7.0;;
53939;SDS011;39850;43.324;21.916;2023-08-12T04:47:09;8.0;;;7.0;;
53939;SDS011;39850;43.324;21.916;2023-08-12T04:51:45;9.0;;;7.0;;
53939;SDS011;39850;43.324;21.916;2023-08-12T04:56:24;9.0;;;7.0;;
53939;SDS011;39850;43.324;21.916;2023-08-12T05:01:01;9.0;;;7.0;;
53939;SDS011;39850;43.324;21.916;2023-08-12T05:33:22;8.0;;;6.0;;
53939;SDS011;39850;43.324;21.916;2023-08-12T05:37:58;8.0;;;6.0;;
53939;SDS011;39850;43.324;21.916;2023-08-12T05:42:36;8.0;;;6.0;;
53939;SDS011;39850;43.324;21.916;2023-08-12T05:47:12;8.0;;;6.0;;
53939;SDS011;39850;43.324;21.916;2023-08-12T05:51:48;8.0;;;6.0;;
53939;SDS011;39850;43.324;21.916;2023-08-12T05:56:25;8.0;;;6.0;;
53939;SDS011;39850;43.324;21.916;2023-08-12T06:01:03;8.0;;;6.0;;
53939;SDS011;39850;43.324;21.916;2023-08-12T06:05:46;8.0;;;6.0;;
53939;SDS011;39850;43.324;21.916;2023-08-12T06:10:23;8.0;;;6.0;;
53939;SDS011;39850;43.324;21.916;2023-08-12T06:15:00;8.0;;;7.0;;
53939;SDS011;39850;43.324;21.916;2023-08-12T06:19:36;8.0;;;7.0;;
53939;SDS011;39850;43.324;21.916;2023-08-12T06:51:52;10.0;;;7.0;;
53939;SDS011;39850;43.324;21.916;2023-08-12T06:56:29;10.0;;;7.0;;
53939;SDS011;39850;43.324;21.916;2023-08-12T07:01:05;10.0;;;7.0;;
53939;SDS011;39850;43.324;21.916;2023-08-12T07:05:42;10.0;;;7.0;;
53939;SDS011;39850;43.324;21.916;2023-08-12T07:10:19;10.0;;;7.0;;
53939;SDS011;39850;43.324;21.916;2023-08-12T07:14:55;9.0;;;7.0;;
53939;SDS011;39850;43.324;21.916;2023-08-12T07:19:32;9.0;;;7.0;;
53939;SDS011;39850;43.324;21.916;2023-08-12T07:24:09;9.0;;;7.0;;
53939;SDS011;39850;43.324;21.916;2023-08-12T07:28:45;9.0;;;7.0;;
53939;SDS011;39850;43.324;21.916;2023-08-12T07:33:22;9.0;;;7.0;;
53939;SDS011;39850;43.324;21.916;2023-08-12T07:37:59;9.0;;;7.0;;
53939;SDS011;39850;43.324;21.916;2023-08-12T08:14:53;15.0;;;15.0;;
53939;SDS011;39850;43.324;21.916;2023-08-12T08:19:30;15.0;;;15.0;;
53939;SDS011;39850;43.324;21.916;2023-08-12T08:24:07;12.0;;;12.0;;
53939;SDS011;39850;43.324;21.916;2023-08-12T08:28:44;12.0;;;12.0;;
53939;SDS011;39850;43.324;21.916;2023-08-12T08:33:20;12.0;;;11.0;;
53939;SDS011;39850;43.324;21.916;2023-08-12T08:37:57;12.0;;;11.0;;
53939;SDS011;39850;43.324;21.916;2023-08-12T08:42:34;10.0;;;10.0;;
53939;SDS011;39850;43.324;21.916;2023-08-12T08:47:27;10.0;;;10.0;;
53939;SDS011;39850;43.324;21.916;2023-08-12T08:52:04;12.0;;;11.0;;
53939;SDS011;39850;43.324;21.916;2023-08-12T08:56:43;12.0;;;11.0;;
53939;SDS011;39850;43.324;21.916;2023-08-12T09:01:23;12.0;;;11.0;;
53939;SDS011;39850;43.324;21.916;2023-08-12T09:33:45;9.0;;;7.0;;
53939;SDS011;39850;43.324;21.916;2023-08-12T09:38:22;9.0;;;7.0;;
53939;SDS011;39850;43.324;21.916;2023-08-12T09:43:00;10.0;;;7.0;;
53939;SDS011;39850;43.324;21.916;2023-08-12T09:47:38;10.0;;;7.0;;
53939;SDS011;39850;43.324;21.916;2023-08-12T09:52:15;9.0;;;7.0;;
53939;SDS011;39850;43.324;21.916;2023-08-12T09:57:04;9.0;;;7.0;;
53939;SDS011;39850;43.324;21.916;2023-08-12T10:01:50;9.0;;;7.0;;
53939;SDS011;39850;43.324;21.916;2023-08-12T10:06:30;9.0;;;7.0;;
53939;SDS011;39850;43.324;21.916;2023-08-12T10:11:10;9.0;;;7.0;;
53939;SDS011;39850;43.324;21.916;2023-08-12T10:15:51;8.0;;;7.0;;
53939;SDS011;39850;43.324;21.916;2023-08-12T10:20:36;8.0;;;7.0;;
53939;SDS011;39850;43.324;21.916;2023-08-12T10:53:46;13.0;;;13.0;;
53939;SDS011;39850;43.324;21.916;2023-08-12T10:58:47;13.0;;;13.0;;
53939;SDS011;39850;43.324;21.916;2023-08-12T11:03:25;12.0;;;11.0;;
53939;SDS011;39850;43.324;21.916;2023-08-12T11:08:03;12.0;;;11.0;;
53939;SDS011;39850;43.324;21.916;2023-08-12T11:12:57;10.0;;;9.0;;
53939;SDS011;39850;43.324;21.916;2023-08-12T11:17:41;10.0;;;9.0;;
53939;SDS011;39850;43.324;21.916;2023-08-12T11:22:19;10.0;;;9.0;;
53939;SDS011;39850;43.324;21.916;2023-08-12T11:26:56;9.0;;;8.0;;
53939;SDS011;39850;43.324;21.916;2023-08-12T11:31:39;9.0;;;8.0;;
53939;SDS011;39850;43.324;21.916;2023-08-12T11:36:17;8.0;;;7.0;;
53939;SDS011;39850;43.324;21.916;2023-08-12T11:40:53;8.0;;;7.0;;
53939;SDS011;39850;43.324;21.916;2023-08-12T12:13:20;8.0;;;6.0;;
53939;SDS011;39850;43.324;21.916;2023-08-12T12:17:58;8.0;;;6.0;;
53939;SDS011;39850;43.324;21.916;2023-08-12T12:22:35;8.0;;;6.0;;
53939;SDS011;39850;43.324;21.916;2023-08-12T12:27:13;8.0;;;7.0;;
53939;SDS011;39850;43.324;21.916;2023-08-12T12:31:49;8.0;;;7.0;;
53939;SDS011;39850;43.324;21.916;2023-08-12T12:36:27;9.0;;;8.0;;
53939;SDS011;39850;43.324;21.916;2023-08-12T12:41:03;9.0;;;8.0;;
53939;SDS011;39850;43.324;21.916;2023-08-12T12:45:39;10.0;;;10.0;;
53939;SDS011;39850;43.324;21.916;2023-08-12T12:50:16;10.0;;;10.0;;
53939;SDS011;39850;43.324;21.916;2023-08-12T12:54:52;11.0;;;11.0;;
53939;SDS011;39850;43.324;21.916;2023-08-12T12:59:29;11.0;;;11.0;;
53939;SDS011;39850;43.324;21.916;2023-08-12T13:36:22;9.0;;;7.0;;
53939;SDS011;39850;43.324;21.916;2023-08-12T13:40:58;9.0;;;7.0;;
53939;SDS011;39850;43.324;21.916;2023-08-12T13:45:35;8.0;;;7.0;;
53939;SDS011;39850;43.324;21.916;2023-08-12T13:50:12;8.0;;;7.0;;
53939;SDS011;39850;43.324;21.916;2023-08-12T13:54:48;8.0;;;7.0;;
53939;SDS011;39850;43.324;21.916;2023-08-12T13:59:24;8.0;;;7.0;;
53939;SDS011;39850;43.324;21.916;2023-08-12T14:04:01;8.0;;;7.0;;
53939;SDS011;39850;43.324;21.916;2023-08-12T14:08:37;8.0;;;7.0;;
53939;SDS011;39850;43.324;21.916;2023-08-12T14:13:14;8.0;;;7.0;;
53939;SDS011;39850;43.324;21.916;2023-08-12T14:17:50;8.0;;;7.0;;
53939;SDS011;39850;43.324;21.916;2023-08-12T14:22:26;8.0;;;7.0;;
53939;SDS011;39850;43.324;21.916;2023-08-12T14:54:44;8.0;;;7.0;;
53939;SDS011;39850;43.324;21.916;2023-08-12T14:59:21;8.0;;;7.0;;
53939;SDS011;39850;43.324;21.916;2023-08-12T15:03:58;8.0;;;7.0;;
53939;SDS011;39850;43.324;21.916;2023-08-12T15:08:34;8.0;;;7.0;;
53939;SDS011;39850;43.324;21.916;2023-08-12T15:13:11;8.0;;;7.0;;
53939;SDS011;39850;43.324;21.916;2023-08-12T15:17:47;8.0;;;7.0;;
53939;SDS011;39850;43.324;21.916;2023-08-12T15:22:24;8.0;;;7.0;;
53939;SDS011;39850;43.324;21.916;2023-08-12T15:27:00;8.0;;;7.0;;
53939;SDS011;39850;43.324;21.916;2023-08-12T15:31:37;8.0;;;7.0;;
53939;SDS011;39850;43.324;21.916;2023-08-12T15:36:13;9.0;;;7.0;;
53939;SDS011;39850;43.324;21.916;2023-08-12T15:40:50;9.0;;;7.0;;
53939;SDS011;39850;43.324;21.916;2023-08-12T16:17:48;9.0;;;7.0;;
53939;SDS011;39850;43.324;21.916;2023-08-12T16:22:25;9.0;;;7.0;;
53939;SDS011;39850;43.324;21.916;2023-08-12T16:27:03;9.0;;;7.0;;
53939;SDS011;39850;43.324;21.916;2023-08-12T16:31:40;9.0;;;7.0;;
53939;SDS011;39850;43.324;21.916;2023-08-12T16:36:16;9.0;;;7.0;;
53939;SDS011;39850;43.324;21.916;2023-08-12T16:40:53;9.0;;;7.0;;
53939;SDS011;39850;43.324;21.916;2023-08-12T16:45:29;8.0;;;7.0;;
53939;SDS011;39850;43.324;21.916;2023-08-12T16:50:09;8.0;;;7.0;;
53939;SDS011;39850;43.324;21.916;2023-08-12T16:54:46;8.0;;;7.0;;
53939;SDS011;39850;43.324;21.916;2023-08-12T16:59:24;8.0;;;7.0;;
53939;SDS011;39850;43.324;21.916;2023-08-12T17:36:17;8.0;;;7.0;;
53939;SDS011;39850;43.324;21.916;2023-08-12T17:40:54;8.0;;;7.0;;
53939;SDS011;39850;43.324;21.916;2023-08-12T17:45:31;8.0;;;7.0;;
53939;SDS011;39850;43.324;21.916;2023-08-12T17:50:12;8.0;;;7.0;;
53939;SDS011;39850;43.324;21.916;2023-08-12T17:54:49;9.0;;;7.0;;
53939;SDS011;39850;43.324;21.916;2023-08-12T17:59:25;9.0;;;7.0;;
53939;SDS011;39850;43.324;21.916;2023-08-12T18:04:02;9.0;;;7.0;;
53939;SDS011;39850;43.324;21.916;2023-08-12T18:08:38;9.0;;;7.0;;
53939;SDS011;39850;43.324;21.916;2023-08-12T18:13:15;9.0;;;7.0;;
53939;SDS011;39850;43.324;21.916;2023-08-12T18:17:52;9.0;;;7.0;;
53939;SDS011;39850;43.324;21.916;2023-08-12T18:22:29;9.0;;;7.0;;
53939;SDS011;39850;43.324;21.916;2023-08-12T18:54:46;11.0;;;10.0;;
53939;SDS011;39850;43.324;21.916;2023-08-12T18:59:23;11.0;;;10.0;;
53939;SDS011;39850;43.324;21.916;2023-08-12T19:04:01;10.0;;;10.0;;
53939;SDS011;39850;43.324;21.916;2023-08-12T19:08:39;10.0;;;10.0;;
53939;SDS011;39850;43.324;21.916;2023-08-12T19:13:16;10.0;;;10.0;;
53939;SDS011;39850;43.324;21.916;2023-08-12T19:17:52;11.0;;;9.0;;
53939;SDS011;39850;43.324;21.916;2023-08-12T19:22:28;11.0;;;9.0;;
53939;SDS011;39850;43.324;21.916;2023-08-12T19:27:05;10.0;;;9.0;;
53939;SDS011;39850;43.324;21.916;2023-08-12T19:31:41;10.0;;;9.0;;
53939;SDS011;39850;43.324;21.916;2023-08-12T19:36:18;11.0;;;9.0;;
53939;SDS011;39850;43.324;21.916;2023-08-12T19:40:56;11.0;;;9.0;;
53939;SDS011;39850;43.324;21.916;2023-08-12T20:17:52;10.0;;;8.0;;
53939;SDS011;39850;43.324;21.916;2023-08-12T20:22:29;10.0;;;8.0;;
53939;SDS011;39850;43.324;21.916;2023-08-12T20:27:06;10.0;;;8.0;;
53939;SDS011;39850;43.324;21.916;2023-08-12T20:31:42;10.0;;;8.0;;
53939;SDS011;39850;43.324;21.916;2023-08-12T20:36:20;10.0;;;9.0;;
53939;SDS011;39850;43.324;21.916;2023-08-12T20:40:56;10.0;;;9.0;;
53939;SDS011;39850;43.324;21.916;2023-08-12T20:45:33;10.0;;;9.0;;
53939;SDS011;39850;43.324;21.916;2023-08-12T20:50:10;10.0;;;9.0;;
53939;SDS011;39850;43.324;21.916;2023-08-12T20:54:51;10.0;;;9.0;;
53939;SDS011;39850;43.324;21.916;2023-08-12T20:59:29;10.0;;;9.0;;
53939;SDS011;39850;43.324;21.916;2023-08-12T21:04:06;10.0;;;9.0;;
53939;SDS011;39850;43.324;21.916;2023-08-12T21:36:22;14.0;;;13.0;;
53939;SDS011;39850;43.324;21.916;2023-08-12T21:40:59;14.0;;;13.0;;
53939;SDS011;39850;43.324;21.916;2023-08-12T21:45:36;14.0;;;14.0;;
53939;SDS011;39850;43.324;21.916;2023-08-12T21:50:12;14.0;;;14.0;;
53939;SDS011;39850;43.324;21.916;2023-08-12T21:54:49;14.0;;;14.0;;
53939;SDS011;39850;43.324;21.916;2023-08-12T21:59:25;14.0;;;14.0;;
53939;SDS011;39850;43.324;21.916;2023-08-12T22:04:02;14.0;;;14.0;;
53939;SDS011;39850;43.324;21.916;2023-08-12T22:08:39;16.0;;;16.0;;
53939;SDS011;39850;43.324;21.916;2023-08-12T22:13:15;16.0;;;16.0;;
53939;SDS011;39850;43.324;21.916;2023-08-12T22:17:52;17.0;;;17.0;;
53939;SDS011;39850;43.324;21.916;2023-08-12T22:22:29;17.0;;;17.0;;
53939;SDS011;39850;43.324;21.916;2023-08-12T22:54:56;15.0;;;15.0;;
53939;SDS011;39850;43.324;21.916;2023-08-12T22:59:33;15.0;;;15.0;;
53939;SDS011;39850;43.324;21.916;2023-08-12T23:04:10;15.0;;;15.0;;
53939;SDS011;39850;43.324;21.916;2023-08-12T23:08:46;13.0;;;12.0;;
53939;SDS011;39850;43.324;21.916;2023-08-12T23:13:23;13.0;;;12.0;;
53939;SDS011;39850;43.324;21.916;2023-08-12T23:18:00;11.0;;;10.0;;
53939;SDS011;39850;43.324;21.916;2023-08-12T23:22:37;11.0;;;10.0;;
53939;SDS011;39850;43.324;21.916;2023-08-12T23:27:14;10.0;;;10.0;;
53939;SDS011;39850;43.324;21.916;2023-08-12T23:31:50;10.0;;;10.0;;
53939;SDS011;39850;43.324;21.916;2023-08-12T23:36:26;9.0;;;9.0;;
53939;SDS011;39850;43.324;21.916;2023-08-12T23:41:07;9.0;;;9.0;;
